Portada
METAR-TAF:

METAR-TAF

Aeroports :

Municipal

Tunica, Mississipí, Estats Units d'Amèrica

latitud: 34-41-06N, longitud: 090-20-52W, altitud: 59 m

Observació

L'informe es va fer fa 16 minuts, a les 02:55 UTC
Vent calma
Temperatura 28°C
Humitat 94%
Pressió 1013 hPa
Visibilitat: 16.1 km
Cel clar

METAR: KUTA 250255Z AUTO 00000KT 10SM CLR 28/27 A2991 RMK AO2 T02800269 $

Hora: 22:11 (03:11 UTC)


TAF: manca

Observacions i pronòstics meteorològics de més de 4000 aeroports (METAR i TAF).

Les estacions disponibles són els punts grocs i vermells al mapa.

Posi el ratolí al punt desitjat per veure el nom de l'estació.

Feu clic per veure les observacions i els pronòstics meteorològics.

Per canviar el mapa: feu clic els botons verds amb una creu de color negre per apropar; al botó verd amb un guió per allunyar la imatge; o en les fletxes verdes per a mapes adjacents.


METAR-TAF: